TimeEST,TemperatureF,Dew PointF,Humidity,Sea Level PressureIn,VisibilityMPH,Wind Direction,Wind SpeedMPH,Gust SpeedMPH,PrecipitationIn,Events,Conditions,WindDirDegrees,DateUTC
12:53 AM,39.9,25.0,55,30.36,10.0,NW,8.1,-,N/A,,Overcast,320,2013-01-10 05:53:00
1:53 AM,39.0,24.1,55,30.39,10.0,Variable,6.9,-,N/A,,Overcast,0,2013-01-10 06:53:00
2:53 AM,37.9,24.1,57,30.41,10.0,WNW,5.8,-,N/A,,Overcast,290,2013-01-10 07:53:00
3:53 AM,37.9,24.1,57,30.44,10.0,WNW,4.6,-,N/A,,Overcast,290,2013-01-10 08:53:00
4:53 AM,37.9,25.0,60,30.45,10.0,WNW,9.2,-,N/A,,Overcast,290,2013-01-10 09:53:00
5:53 AM,37.0,24.1,59,30.48,10.0,NW,4.6,-,N/A,,Overcast,310,2013-01-10 10:53:00
6:53 AM,37.0,23.0,57,30.51,10.0,NW,9.2,-,N/A,,Overcast,310,2013-01-10 11:53:00
7:53 AM,37.0,23.0,57,30.53,10.0,WNW,3.5,-,N/A,,Mostly Cloudy,290,2013-01-10 12:53:00
8:53 AM,37.0,23.0,57,30.58,10.0,Calm,Calm,-,N/A,,Scattered Clouds,0,2013-01-10 13:53:00
9:53 AM,37.9,23.0,55,30.59,10.0,Calm,Calm,-,N/A,,Overcast,0,2013-01-10 14:53:00
10:53 AM,39.0,24.1,55,30.58,10.0,NNW,6.9,-,N/A,,Clear,340,2013-01-10 15:53:00
11:53 AM,39.0,24.1,55,30.55,10.0,Calm,Calm,-,N/A,,Clear,0,2013-01-10 16:53:00
12:53 PM,42.1,24.1,49,30.53,10.0,NW,3.5,-,N/A,,Clear,320,2013-01-10 17:53:00
1:53 PM,39.9,24.1,53,30.53,10.0,SW,5.8,-,N/A,,Clear,220,2013-01-10 18:53:00
2:53 PM,41.0,24.1,51,30.54,10.0,SSW,4.6,-,N/A,,Clear,210,2013-01-10 19:53:00
3:53 PM,39.9,24.1,53,30.54,10.0,Calm,Calm,-,N/A,,Clear,0,2013-01-10 20:53:00
4:53 PM,36.0,25.0,64,30.54,10.0,NE,3.5,-,N/A,,Clear,50,2013-01-10 21:53:00
5:53 PM,32.0,24.1,73,30.55,10.0,Calm,Calm,-,N/A,,Clear,0,2013-01-10 22:53:00
6:53 PM,28.9,23.0,78,30.56,10.0,East,3.5,-,N/A,,Clear,90,2013-01-10 23:53:00
7:53 PM,27.0,21.9,81,30.55,10.0,Calm,Calm,-,N/A,,Clear,0,2013-01-11 00:53:00
8:53 PM,27.0,21.9,81,30.55,10.0,Calm,Calm,-,N/A,,Clear,0,2013-01-11 01:53:00
9:53 PM,27.0,23.0,85,30.54,10.0,ENE,3.5,-,N/A,,Clear,70,2013-01-11 02:53:00
10:53 PM,28.9,24.1,82,30.53,10.0,NE,5.8,-,N/A,,Clear,50,2013-01-11 03:53:00
11:53 PM,28.9,24.1,82,30.51,10.0,Calm,Calm,-,N/A,,Clear,0,2013-01-11 04:53:00